sensor_id;sensor_type;location;lat;lon;timestamp;P1;durP1;ratioP1;P2;durP2;ratioP2
75732;SDS011;73508;47.424;19.400;2023-11-19T00:00:29;13.00;;;5.93;;
75732;SDS011;73508;47.424;19.400;2023-11-19T00:02:55;12.37;;;5.77;;
75732;SDS011;73508;47.424;19.400;2023-11-19T00:05:20;14.65;;;5.10;;
75732;SDS011;73508;47.424;19.400;2023-11-19T00:07:46;14.57;;;5.80;;
75732;SDS011;73508;47.424;19.400;2023-11-19T00:10:12;21.27;;;7.70;;
75732;SDS011;73508;47.424;19.400;2023-11-19T00:12:42;15.82;;;7.20;;
75732;SDS011;73508;47.424;19.400;2023-11-19T00:15:09;15.60;;;6.80;;
75732;SDS011;73508;47.424;19.400;2023-11-19T00:17:39;13.27;;;6.47;;
75732;SDS011;73508;47.424;19.400;2023-11-19T00:20:14;14.60;;;5.93;;
75732;SDS011;73508;47.424;19.400;2023-11-19T00:22:44;15.65;;;6.37;;
75732;SDS011;73508;47.424;19.400;2023-11-19T00:25:11;15.45;;;6.28;;
75732;SDS011;73508;47.424;19.400;2023-11-19T00:27:36;14.07;;;5.93;;
75732;SDS011;73508;47.424;19.400;2023-11-19T00:30:05;17.42;;;6.47;;
75732;SDS011;73508;47.424;19.400;2023-11-19T00:32:32;18.75;;;6.53;;
75732;SDS011;73508;47.424;19.400;2023-11-19T00:34:57;17.93;;;6.47;;
75732;SDS011;73508;47.424;19.400;2023-11-19T00:37:23;17.00;;;7.05;;
75732;SDS011;73508;47.424;19.400;2023-11-19T00:39:48;14.50;;;6.90;;
75732;SDS011;73508;47.424;19.400;2023-11-19T00:42:14;14.27;;;6.20;;
75732;SDS011;73508;47.424;19.400;2023-11-19T00:44:39;13.97;;;6.17;;
75732;SDS011;73508;47.424;19.400;2023-11-19T00:47:06;14.13;;;6.45;;
75732;SDS011;73508;47.424;19.400;2023-11-19T00:49:31;16.80;;;6.70;;
75732;SDS011;73508;47.424;19.400;2023-11-19T00:52:00;13.23;;;6.57;;
75732;SDS011;73508;47.424;19.400;2023-11-19T00:54:25;19.63;;;7.40;;
75732;SDS011;73508;47.424;19.400;2023-11-19T00:56:54;13.10;;;5.93;;
75732;SDS011;73508;47.424;19.400;2023-11-19T00:59:20;16.55;;;6.50;;
75732;SDS011;73508;47.424;19.400;2023-11-19T01:01:45;15.23;;;6.67;;
75732;SDS011;73508;47.424;19.400;2023-11-19T01:04:13;16.95;;;7.30;;
75732;SDS011;73508;47.424;19.400;2023-11-19T01:06:39;17.08;;;7.05;;
75732;SDS011;73508;47.424;19.400;2023-11-19T01:09:05;13.73;;;6.47;;
75732;SDS011;73508;47.424;19.400;2023-11-19T01:11:30;18.23;;;7.23;;
75732;SDS011;73508;47.424;19.400;2023-11-19T01:13:56;16.52;;;7.00;;
75732;SDS011;73508;47.424;19.400;2023-11-19T01:16:21;15.10;;;6.60;;
75732;SDS011;73508;47.424;19.400;2023-11-19T01:18:47;14.50;;;6.62;;
75732;SDS011;73508;47.424;19.400;2023-11-19T01:21:14;18.67;;;7.03;;
75732;SDS011;73508;47.424;19.400;2023-11-19T01:23:40;17.52;;;6.85;;
75732;SDS011;73508;47.424;19.400;2023-11-19T01:26:08;14.97;;;6.80;;
75732;SDS011;73508;47.424;19.400;2023-11-19T01:28:35;15.65;;;6.90;;
75732;SDS011;73508;47.424;19.400;2023-11-19T01:31:00;18.17;;;7.25;;
75732;SDS011;73508;47.424;19.400;2023-11-19T01:33:26;15.30;;;6.60;;
75732;SDS011;73508;47.424;19.400;2023-11-19T01:35:52;16.00;;;6.63;;
75732;SDS011;73508;47.424;19.400;2023-11-19T01:38:17;17.17;;;7.80;;
75732;SDS011;73508;47.424;19.400;2023-11-19T01:40:42;16.03;;;7.37;;
75732;SDS011;73508;47.424;19.400;2023-11-19T01:43:08;15.90;;;6.80;;
75732;SDS011;73508;47.424;19.400;2023-11-19T01:45:36;15.10;;;6.72;;
75732;SDS011;73508;47.424;19.400;2023-11-19T01:48:02;15.00;;;7.50;;
75732;SDS011;73508;47.424;19.400;2023-11-19T01:50:31;17.60;;;7.22;;
75732;SDS011;73508;47.424;19.400;2023-11-19T01:52:57;16.50;;;6.67;;
75732;SDS011;73508;47.424;19.400;2023-11-19T01:55:23;15.95;;;6.57;;
75732;SDS011;73508;47.424;19.400;2023-11-19T01:57:49;13.77;;;6.53;;
75732;SDS011;73508;47.424;19.400;2023-11-19T02:00:16;16.20;;;6.93;;
75732;SDS011;73508;47.424;19.400;2023-11-19T02:02:42;18.08;;;7.90;;
75732;SDS011;73508;47.424;19.400;2023-11-19T02:05:10;18.60;;;7.60;;
75732;SDS011;73508;47.424;19.400;2023-11-19T02:07:36;15.70;;;7.37;;
75732;SDS011;73508;47.424;19.400;2023-11-19T02:10:01;17.43;;;7.27;;
75732;SDS011;73508;47.424;19.400;2023-11-19T02:12:30;15.45;;;7.37;;
75732;SDS011;73508;47.424;19.400;2023-11-19T02:14:58;15.47;;;6.87;;
75732;SDS011;73508;47.424;19.400;2023-11-19T02:17:25;18.20;;;8.30;;
75732;SDS011;73508;47.424;19.400;2023-11-19T02:19:57;19.85;;;7.57;;
75732;SDS011;73508;47.424;19.400;2023-11-19T02:22:23;16.85;;;7.75;;
75732;SDS011;73508;47.424;19.400;2023-11-19T02:24:49;19.23;;;7.60;;
75732;SDS011;73508;47.424;19.400;2023-11-19T02:27:23;15.75;;;7.18;;
75732;SDS011;73508;47.424;19.400;2023-11-19T02:29:56;16.80;;;7.35;;
75732;SDS011;73508;47.424;19.400;2023-11-19T02:32:22;16.45;;;7.43;;
75732;SDS011;73508;47.424;19.400;2023-11-19T02:34:48;16.58;;;7.57;;
75732;SDS011;73508;47.424;19.400;2023-11-19T02:37:14;15.53;;;7.50;;
75732;SDS011;73508;47.424;19.400;2023-11-19T02:39:40;15.30;;;6.93;;
75732;SDS011;73508;47.424;19.400;2023-11-19T02:42:06;16.00;;;7.68;;
75732;SDS011;73508;47.424;19.400;2023-11-19T02:44:33;15.88;;;6.68;;
75732;SDS011;73508;47.424;19.400;2023-11-19T02:46:59;17.45;;;7.60;;
75732;SDS011;73508;47.424;19.400;2023-11-19T02:49:24;16.80;;;6.83;;
75732;SDS011;73508;47.424;19.400;2023-11-19T02:51:50;14.37;;;7.03;;
75732;SDS011;73508;47.424;19.400;2023-11-19T02:54:15;18.20;;;7.35;;
75732;SDS011;73508;47.424;19.400;2023-11-19T02:56:44;14.20;;;6.80;;
75732;SDS011;73508;47.424;19.400;2023-11-19T02:59:12;15.55;;;7.22;;
75732;SDS011;73508;47.424;19.400;2023-11-19T03:01:52;16.20;;;7.40;;
75732;SDS011;73508;47.424;19.400;2023-11-19T03:04:18;16.00;;;7.53;;
75732;SDS011;73508;47.424;19.400;2023-11-19T03:06:45;17.20;;;7.80;;
75732;SDS011;73508;47.424;19.400;2023-11-19T03:09:11;16.60;;;7.65;;
75732;SDS011;73508;47.424;19.400;2023-11-19T03:11:36;16.27;;;7.57;;
75732;SDS011;73508;47.424;19.400;2023-11-19T03:14:02;16.83;;;8.30;;
75732;SDS011;73508;47.424;19.400;2023-11-19T03:16:30;14.33;;;7.63;;
75732;SDS011;73508;47.424;19.400;2023-11-19T03:18:56;16.27;;;7.85;;
75732;SDS011;73508;47.424;19.400;2023-11-19T03:21:31;16.53;;;8.13;;
75732;SDS011;73508;47.424;19.400;2023-11-19T03:23:57;17.50;;;8.20;;
75732;SDS011;73508;47.424;19.400;2023-11-19T03:26:25;17.25;;;7.47;;
75732;SDS011;73508;47.424;19.400;2023-11-19T03:28:53;16.85;;;7.53;;
75732;SDS011;73508;47.424;19.400;2023-11-19T03:31:19;16.80;;;7.77;;
75732;SDS011;73508;47.424;19.400;2023-11-19T03:33:45;16.20;;;7.95;;
75732;SDS011;73508;47.424;19.400;2023-11-19T03:36:11;17.62;;;7.60;;
75732;SDS011;73508;47.424;19.400;2023-11-19T03:38:37;16.67;;;8.00;;
75732;SDS011;73508;47.424;19.400;2023-11-19T03:41:12;14.48;;;7.43;;
75732;SDS011;73508;47.424;19.400;2023-11-19T03:43:38;16.60;;;7.30;;
75732;SDS011;73508;47.424;19.400;2023-11-19T03:46:05;15.25;;;7.55;;
75732;SDS011;73508;47.424;19.400;2023-11-19T03:48:40;17.00;;;7.30;;
75732;SDS011;73508;47.424;19.400;2023-11-19T03:51:05;17.97;;;8.03;;
75732;SDS011;73508;47.424;19.400;2023-11-19T03:53:31;18.57;;;8.10;;
75732;SDS011;73508;47.424;19.400;2023-11-19T03:55:56;17.83;;;7.72;;
75732;SDS011;73508;47.424;19.400;2023-11-19T03:58:21;16.77;;;7.17;;
75732;SDS011;73508;47.424;19.400;2023-11-19T04:00:47;17.33;;;7.53;;
75732;SDS011;73508;47.424;19.400;2023-11-19T04:03:12;20.70;;;8.10;;
75732;SDS011;73508;47.424;19.400;2023-11-19T04:05:38;15.70;;;7.30;;
75732;SDS011;73508;47.424;19.400;2023-11-19T04:08:03;17.50;;;8.20;;
75732;SDS011;73508;47.424;19.400;2023-11-19T04:10:29;16.83;;;8.07;;
75732;SDS011;73508;47.424;19.400;2023-11-19T04:12:54;17.47;;;8.07;;
75732;SDS011;73508;47.424;19.400;2023-11-19T04:15:19;22.62;;;9.43;;
75732;SDS011;73508;47.424;19.400;2023-11-19T04:17:45;18.00;;;8.73;;
75732;SDS011;73508;47.424;19.400;2023-11-19T04:20:11;18.00;;;7.93;;
75732;SDS011;73508;47.424;19.400;2023-11-19T04:22:38;19.90;;;8.88;;
75732;SDS011;73508;47.424;19.400;2023-11-19T04:25:04;19.00;;;8.50;;
75732;SDS011;73508;47.424;19.400;2023-11-19T04:27:30;20.48;;;9.25;;
75732;SDS011;73508;47.424;19.400;2023-11-19T04:29:55;18.13;;;9.07;;
75732;SDS011;73508;47.424;19.400;2023-11-19T04:32:21;18.90;;;9.00;;
75732;SDS011;73508;47.424;19.400;2023-11-19T04:34:46;22.33;;;9.97;;
75732;SDS011;73508;47.424;19.400;2023-11-19T04:37:12;18.97;;;8.93;;
75732;SDS011;73508;47.424;19.400;2023-11-19T04:39:37;22.37;;;10.07;;
75732;SDS011;73508;47.424;19.400;2023-11-19T04:42:03;19.70;;;9.93;;
75732;SDS011;73508;47.424;19.400;2023-11-19T04:44:29;21.73;;;9.37;;
75732;SDS011;73508;47.424;19.400;2023-11-19T04:46:55;25.10;;;10.30;;
75732;SDS011;73508;47.424;19.400;2023-11-19T04:49:20;22.37;;;9.87;;
75732;SDS011;73508;47.424;19.400;2023-11-19T04:51:46;24.13;;;9.63;;
75732;SDS011;73508;47.424;19.400;2023-11-19T04:54:12;22.57;;;10.00;;
75732;SDS011;73508;47.424;19.400;2023-11-19T04:56:37;23.67;;;10.13;;
75732;SDS011;73508;47.424;19.400;2023-11-19T04:59:03;20.10;;;8.93;;
75732;SDS011;73508;47.424;19.400;2023-11-19T05:01:30;21.00;;;8.75;;
75732;SDS011;73508;47.424;19.400;2023-11-19T05:03:56;16.60;;;8.32;;
75732;SDS011;73508;47.424;19.400;2023-11-19T05:06:25;19.12;;;9.13;;
75732;SDS011;73508;47.424;19.400;2023-11-19T05:08:54;21.53;;;9.60;;
75732;SDS011;73508;47.424;19.400;2023-11-19T05:11:20;22.15;;;10.38;;
75732;SDS011;73508;47.424;19.400;2023-11-19T05:13:45;20.93;;;9.50;;
75732;SDS011;73508;47.424;19.400;2023-11-19T05:16:11;22.17;;;9.38;;
75732;SDS011;73508;47.424;19.400;2023-11-19T05:18:39;19.97;;;10.07;;
75732;SDS011;73508;47.424;19.400;2023-11-19T05:21:05;19.25;;;9.18;;
75732;SDS011;73508;47.424;19.400;2023-11-19T05:23:30;20.70;;;8.88;;
75732;SDS011;73508;47.424;19.400;2023-11-19T05:25:56;19.97;;;9.30;;
75732;SDS011;73508;47.424;19.400;2023-11-19T05:28:23;20.70;;;9.68;;
75732;SDS011;73508;47.424;19.400;2023-11-19T05:30:49;19.20;;;8.80;;
75732;SDS011;73508;47.424;19.400;2023-11-19T05:33:15;21.37;;;9.10;;
75732;SDS011;73508;47.424;19.400;2023-11-19T05:35:40;25.67;;;9.60;;
75732;SDS011;73508;47.424;19.400;2023-11-19T05:38:06;16.33;;;7.97;;
75732;SDS011;73508;47.424;19.400;2023-11-19T05:40:31;17.83;;;8.70;;
75732;SDS011;73508;47.424;19.400;2023-11-19T05:42:57;22.67;;;9.23;;
75732;SDS011;73508;47.424;19.400;2023-11-19T05:45:23;21.30;;;9.02;;
75732;SDS011;73508;47.424;19.400;2023-11-19T05:47:48;20.43;;;9.80;;
75732;SDS011;73508;47.424;19.400;2023-11-19T05:50:14;24.23;;;10.90;;
75732;SDS011;73508;47.424;19.400;2023-11-19T05:52:39;23.37;;;10.53;;
75732;SDS011;73508;47.424;19.400;2023-11-19T05:55:05;22.80;;;10.32;;
75732;SDS011;73508;47.424;19.400;2023-11-19T05:57:34;20.40;;;9.43;;
75732;SDS011;73508;47.424;19.400;2023-11-19T06:00:00;20.67;;;9.55;;
75732;SDS011;73508;47.424;19.400;2023-11-19T06:02:26;20.27;;;9.00;;
75732;SDS011;73508;47.424;19.400;2023-11-19T06:04:52;22.48;;;9.88;;
75732;SDS011;73508;47.424;19.400;2023-11-19T06:07:18;20.90;;;10.00;;
75732;SDS011;73508;47.424;19.400;2023-11-19T06:09:43;21.63;;;9.17;;
75732;SDS011;73508;47.424;19.400;2023-11-19T06:12:09;21.30;;;9.67;;
75732;SDS011;73508;47.424;19.400;2023-11-19T06:14:34;21.58;;;10.20;;
75732;SDS011;73508;47.424;19.400;2023-11-19T06:17:00;22.87;;;10.93;;
75732;SDS011;73508;47.424;19.400;2023-11-19T06:19:25;22.47;;;11.00;;
75732;SDS011;73508;47.424;19.400;2023-11-19T06:21:50;20.80;;;9.60;;
75732;SDS011;73508;47.424;19.400;2023-11-19T06:24:17;24.02;;;10.80;;
75732;SDS011;73508;47.424;19.400;2023-11-19T06:26:42;23.93;;;11.77;;
75732;SDS011;73508;47.424;19.400;2023-11-19T06:29:08;25.62;;;11.50;;
75732;SDS011;73508;47.424;19.400;2023-11-19T06:31:33;24.87;;;11.20;;
75732;SDS011;73508;47.424;19.400;2023-11-19T06:33:59;25.83;;;10.90;;
75732;SDS011;73508;47.424;19.400;2023-11-19T06:36:24;29.53;;;11.93;;
75732;SDS011;73508;47.424;19.400;2023-11-19T06:38:49;25.45;;;11.60;;
75732;SDS011;73508;47.424;19.400;2023-11-19T06:41:15;21.17;;;10.33;;
75732;SDS011;73508;47.424;19.400;2023-11-19T06:43:40;22.50;;;10.63;;
75732;SDS011;73508;47.424;19.400;2023-11-19T06:46:13;21.13;;;10.37;;
75732;SDS011;73508;47.424;19.400;2023-11-19T06:48:39;20.85;;;9.85;;
75732;SDS011;73508;47.424;19.400;2023-11-19T06:51:05;20.47;;;9.77;;
75732;SDS011;73508;47.424;19.400;2023-11-19T06:53:30;17.30;;;8.38;;
75732;SDS011;73508;47.424;19.400;2023-11-19T06:55:56;20.97;;;10.07;;
75732;SDS011;73508;47.424;19.400;2023-11-19T06:58:22;19.12;;;9.05;;
75732;SDS011;73508;47.424;19.400;2023-11-19T07:00:47;23.07;;;10.03;;
75732;SDS011;73508;47.424;19.400;2023-11-19T07:03:14;19.75;;;9.63;;
75732;SDS011;73508;47.424;19.400;2023-11-19T07:05:40;19.60;;;9.90;;
75732;SDS011;73508;47.424;19.400;2023-11-19T07:08:06;21.25;;;9.95;;
75732;SDS011;73508;47.424;19.400;2023-11-19T07:10:34;21.40;;;10.17;;
75732;SDS011;73508;47.424;19.400;2023-11-19T07:12:59;19.83;;;10.63;;
75732;SDS011;73508;47.424;19.400;2023-11-19T07:15:25;22.27;;;11.10;;
75732;SDS011;73508;47.424;19.400;2023-11-19T07:17:50;25.60;;;11.30;;
75732;SDS011;73508;47.424;19.400;2023-11-19T07:20:16;29.17;;;11.27;;
75732;SDS011;73508;47.424;19.400;2023-11-19T07:22:42;24.90;;;11.10;;
75732;SDS011;73508;47.424;19.400;2023-11-19T07:25:10;19.57;;;10.20;;
75732;SDS011;73508;47.424;19.400;2023-11-19T07:27:38;19.60;;;10.80;;
75732;SDS011;73508;47.424;19.400;2023-11-19T07:30:03;20.50;;;10.03;;
75732;SDS011;73508;47.424;19.400;2023-11-19T07:32:32;22.75;;;9.50;;
75732;SDS011;73508;47.424;19.400;2023-11-19T07:34:57;20.80;;;9.65;;
75732;SDS011;73508;47.424;19.400;2023-11-19T07:37:23;23.10;;;10.60;;
75732;SDS011;73508;47.424;19.400;2023-11-19T07:39:49;21.05;;;9.52;;
75732;SDS011;73508;47.424;19.400;2023-11-19T07:42:14;21.57;;;10.17;;
75732;SDS011;73508;47.424;19.400;2023-11-19T07:44:40;20.20;;;10.17;;
75732;SDS011;73508;47.424;19.400;2023-11-19T07:47:06;19.50;;;10.13;;
75732;SDS011;73508;47.424;19.400;2023-11-19T07:49:32;20.20;;;9.23;;
75732;SDS011;73508;47.424;19.400;2023-11-19T07:51:57;21.95;;;10.25;;
75732;SDS011;73508;47.424;19.400;2023-11-19T07:54:23;22.63;;;10.70;;
75732;SDS011;73508;47.424;19.400;2023-11-19T07:56:49;21.75;;;10.73;;
75732;SDS011;73508;47.424;19.400;2023-11-19T07:59:15;22.35;;;10.77;;
75732;SDS011;73508;47.424;19.400;2023-11-19T08:01:41;21.27;;;10.60;;
75732;SDS011;73508;47.424;19.400;2023-11-19T08:04:06;21.45;;;10.02;;
75732;SDS011;73508;47.424;19.400;2023-11-19T08:06:31;15.90;;;8.33;;
75732;SDS011;73508;47.424;19.400;2023-11-19T08:08:57;18.03;;;9.23;;
75732;SDS011;73508;47.424;19.400;2023-11-19T08:11:22;19.80;;;10.30;;
75732;SDS011;73508;47.424;19.400;2023-11-19T08:13:48;23.77;;;10.43;;
75732;SDS011;73508;47.424;19.400;2023-11-19T08:16:13;23.50;;;10.50;;
75732;SDS011;73508;47.424;19.400;2023-11-19T08:18:41;22.25;;;11.12;;
75732;SDS011;73508;47.424;19.400;2023-11-19T08:21:07;20.23;;;9.80;;
75732;SDS011;73508;47.424;19.400;2023-11-19T08:23:33;19.95;;;9.40;;
75732;SDS011;73508;47.424;19.400;2023-11-19T08:25:59;24.02;;;10.23;;
75732;SDS011;73508;47.424;19.400;2023-11-19T08:28:25;20.60;;;9.70;;
75732;SDS011;73508;47.424;19.400;2023-11-19T08:30:50;21.90;;;10.50;;
75732;SDS011;73508;47.424;19.400;2023-11-19T08:33:15;20.30;;;10.05;;
75732;SDS011;73508;47.424;19.400;2023-11-19T08:35:42;20.97;;;10.03;;
75732;SDS011;73508;47.424;19.400;2023-11-19T08:38:07;19.58;;;9.93;;
75732;SDS011;73508;47.424;19.400;2023-11-19T08:40:33;18.30;;;8.93;;
75732;SDS011;73508;47.424;19.400;2023-11-19T08:42:58;17.13;;;8.70;;
75732;SDS011;73508;47.424;19.400;2023-11-19T08:45:23;17.40;;;8.67;;
75732;SDS011;73508;47.424;19.400;2023-11-19T08:47:49;16.02;;;7.65;;
75732;SDS011;73508;47.424;19.400;2023-11-19T08:50:15;19.08;;;8.73;;
75732;SDS011;73508;47.424;19.400;2023-11-19T08:52:40;16.73;;;8.67;;
75732;SDS011;73508;47.424;19.400;2023-11-19T08:55:06;16.93;;;8.13;;
75732;SDS011;73508;47.424;19.400;2023-11-19T08:57:32;15.23;;;8.13;;
75732;SDS011;73508;47.424;19.400;2023-11-19T08:59:58;15.57;;;7.73;;
75732;SDS011;73508;47.424;19.400;2023-11-19T09:02:23;13.43;;;7.75;;
75732;SDS011;73508;47.424;19.400;2023-11-19T09:04:49;14.40;;;7.87;;
75732;SDS011;73508;47.424;19.400;2023-11-19T09:07:14;13.33;;;7.80;;
75732;SDS011;73508;47.424;19.400;2023-11-19T09:09:39;18.55;;;9.00;;
75732;SDS011;73508;47.424;19.400;2023-11-19T09:12:05;16.30;;;9.10;;
75732;SDS011;73508;47.424;19.400;2023-11-19T09:14:31;17.27;;;8.70;;
75732;SDS011;73508;47.424;19.400;2023-11-19T09:16:56;18.48;;;9.48;;
75732;SDS011;73508;47.424;19.400;2023-11-19T09:19:23;16.58;;;9.23;;
75732;SDS011;73508;47.424;19.400;2023-11-19T09:21:48;17.43;;;9.10;;
75732;SDS011;73508;47.424;19.400;2023-11-19T09:24:14;17.47;;;9.23;;
75732;SDS011;73508;47.424;19.400;2023-11-19T09:26:40;19.65;;;9.27;;
75732;SDS011;73508;47.424;19.400;2023-11-19T09:29:07;19.87;;;9.48;;
75732;SDS011;73508;47.424;19.400;2023-11-19T09:31:32;20.40;;;9.32;;
75732;SDS011;73508;47.424;19.400;2023-11-19T09:33:58;18.33;;;9.20;;
75732;SDS011;73508;47.424;19.400;2023-11-19T09:36:23;19.47;;;9.70;;
75732;SDS011;73508;47.424;19.400;2023-11-19T09:38:49;19.10;;;10.23;;
75732;SDS011;73508;47.424;19.400;2023-11-19T09:41:14;23.60;;;11.43;;
75732;SDS011;73508;47.424;19.400;2023-11-19T09:43:41;19.17;;;9.55;;
75732;SDS011;73508;47.424;19.400;2023-11-19T09:46:07;18.03;;;9.30;;
75732;SDS011;73508;47.424;19.400;2023-11-19T09:48:37;22.08;;;10.55;;
75732;SDS011;73508;47.424;19.400;2023-11-19T09:51:12;18.87;;;10.48;;
75732;SDS011;73508;47.424;19.400;2023-11-19T09:53:37;20.50;;;10.10;;
75732;SDS011;73508;47.424;19.400;2023-11-19T09:56:06;17.45;;;9.38;;
75732;SDS011;73508;47.424;19.400;2023-11-19T09:58:35;18.60;;;9.07;;
75732;SDS011;73508;47.424;19.400;2023-11-19T10:01:01;19.45;;;9.57;;
75732;SDS011;73508;47.424;19.400;2023-11-19T10:03:32;18.27;;;9.40;;
75732;SDS011;73508;47.424;19.400;2023-11-19T10:05:58;19.52;;;10.00;;
75732;SDS011;73508;47.424;19.400;2023-11-19T10:08:25;21.02;;;10.27;;
75732;SDS011;73508;47.424;19.400;2023-11-19T10:10:51;18.47;;;9.50;;
75732;SDS011;73508;47.424;19.400;2023-11-19T10:13:17;19.70;;;9.68;;
75732;SDS011;73508;47.424;19.400;2023-11-19T10:15:42;18.07;;;8.93;;
75732;SDS011;73508;47.424;19.400;2023-11-19T10:18:09;18.55;;;9.70;;
75732;SDS011;73508;47.424;19.400;2023-11-19T10:20:37;19.27;;;9.73;;
75732;SDS011;73508;47.424;19.400;2023-11-19T10:23:03;21.48;;;10.65;;
75732;SDS011;73508;47.424;19.400;2023-11-19T10:25:29;18.20;;;10.10;;
75732;SDS011;73508;47.424;19.400;2023-11-19T10:27:55;21.12;;;10.82;;
75732;SDS011;73508;47.424;19.400;2023-11-19T10:30:22;21.62;;;10.95;;
75732;SDS011;73508;47.424;19.400;2023-11-19T10:33:07;23.70;;;13.55;;
75732;SDS011;73508;47.424;19.400;2023-11-19T10:35:58;20.80;;;11.20;;
75732;SDS011;73508;47.424;19.400;2023-11-19T10:38:25;21.50;;;9.35;;
75732;SDS011;73508;47.424;19.400;2023-11-19T10:40:51;17.25;;;8.68;;
75732;SDS011;73508;47.424;19.400;2023-11-19T10:43:17;16.70;;;8.52;;
75732;SDS011;73508;47.424;19.400;2023-11-19T10:45:47;15.73;;;8.00;;
75732;SDS011;73508;47.424;19.400;2023-11-19T10:48:13;15.77;;;8.20;;
75732;SDS011;73508;47.424;19.400;2023-11-19T10:50:39;14.80;;;7.23;;
75732;SDS011;73508;47.424;19.400;2023-11-19T10:53:06;15.63;;;7.50;;
75732;SDS011;73508;47.424;19.400;2023-11-19T10:55:34;14.82;;;7.47;;
75732;SDS011;73508;47.424;19.400;2023-11-19T10:58:01;13.05;;;7.05;;
75732;SDS011;73508;47.424;19.400;2023-11-19T11:01:16;12.75;;;7.07;;
75732;SDS011;73508;47.424;19.400;2023-11-19T11:03:18;14.57;;;7.40;;
75732;SDS011;73508;47.424;19.400;2023-11-19T11:05:47;14.10;;;6.95;;
75732;SDS011;73508;47.424;19.400;2023-11-19T11:08:13;15.20;;;7.05;;
75732;SDS011;73508;47.424;19.400;2023-11-19T11:10:45;15.02;;;6.55;;
75732;SDS011;73508;47.424;19.400;2023-11-19T11:13:11;12.10;;;6.80;;
75732;SDS011;73508;47.424;19.400;2023-11-19T11:15:38;14.60;;;7.50;;
75732;SDS011;73508;47.424;19.400;2023-11-19T11:18:04;14.65;;;7.50;;
75732;SDS011;73508;47.424;19.400;2023-11-19T11:20:33;15.88;;;9.13;;
75732;SDS011;73508;47.424;19.400;2023-11-19T11:31:24;16.58;;;8.10;;
75732;SDS011;73508;47.424;19.400;2023-11-19T11:39:27;17.48;;;8.82;;
75732;SDS011;73508;47.424;19.400;2023-11-19T11:45:06;18.42;;;8.55;;
75732;SDS011;73508;47.424;19.400;2023-11-19T11:50:14;15.70;;;7.45;;
75732;SDS011;73508;47.424;19.400;2023-11-19T11:55:26;17.05;;;8.35;;
75732;SDS011;73508;47.424;19.400;2023-11-19T11:57:54;15.05;;;8.20;;
75732;SDS011;73508;47.424;19.400;2023-11-19T12:00:27;15.20;;;7.40;;
75732;SDS011;73508;47.424;19.400;2023-11-19T12:02:56;15.98;;;7.75;;
75732;SDS011;73508;47.424;19.400;2023-11-19T12:05:22;13.70;;;7.47;;
75732;SDS011;73508;47.424;19.400;2023-11-19T12:07:58;16.52;;;8.35;;
75732;SDS011;73508;47.424;19.400;2023-11-19T12:10:26;14.23;;;7.20;;
75732;SDS011;73508;47.424;19.400;2023-11-19T12:12:59;14.90;;;7.57;;
75732;SDS011;73508;47.424;19.400;2023-11-19T12:15:25;15.32;;;8.63;;
75732;SDS011;73508;47.424;19.400;2023-11-19T12:17:53;17.90;;;9.57;;
75732;SDS011;73508;47.424;19.400;2023-11-19T12:20:20;18.73;;;10.18;;
75732;SDS011;73508;47.424;19.400;2023-11-19T12:22:46;17.07;;;8.03;;
75732;SDS011;73508;47.424;19.400;2023-11-19T12:25:14;16.62;;;7.93;;
75732;SDS011;73508;47.424;19.400;2023-11-19T12:27:45;16.65;;;8.15;;
75732;SDS011;73508;47.424;19.400;2023-11-19T12:30:23;14.55;;;7.35;;
75732;SDS011;73508;47.424;19.400;2023-11-19T12:32:52;16.87;;;8.10;;
75732;SDS011;73508;47.424;19.400;2023-11-19T12:35:21;15.70;;;7.27;;
75732;SDS011;73508;47.424;19.400;2023-11-19T12:37:49;14.48;;;6.80;;
75732;SDS011;73508;47.424;19.400;2023-11-19T12:40:19;15.40;;;7.45;;
75732;SDS011;73508;47.424;19.400;2023-11-19T12:42:45;13.68;;;6.80;;
75732;SDS011;73508;47.424;19.400;2023-11-19T12:45:12;15.43;;;7.45;;
75732;SDS011;73508;47.424;19.400;2023-11-19T12:47:41;12.37;;;6.70;;
75732;SDS011;73508;47.424;19.400;2023-11-19T12:50:12;13.95;;;6.62;;
75732;SDS011;73508;47.424;19.400;2023-11-19T12:52:37;12.63;;;6.17;;
75732;SDS011;73508;47.424;19.400;2023-11-19T12:55:04;14.20;;;6.53;;
75732;SDS011;73508;47.424;19.400;2023-11-19T12:57:41;10.95;;;5.90;;
75732;SDS011;73508;47.424;19.400;2023-11-19T13:00:07;10.77;;;5.90;;
75732;SDS011;73508;47.424;19.400;2023-11-19T13:02:49;11.57;;;5.93;;
75732;SDS011;73508;47.424;19.400;2023-11-19T13:05:22;11.43;;;6.12;;
75732;SDS011;73508;47.424;19.400;2023-11-19T13:08:04;12.70;;;6.20;;
75732;SDS011;73508;47.424;19.400;2023-11-19T13:10:53;10.93;;;5.47;;
75732;SDS011;73508;47.424;19.400;2023-11-19T13:13:22;11.07;;;5.47;;
75732;SDS011;73508;47.424;19.400;2023-11-19T13:15:47;10.52;;;5.55;;
75732;SDS011;73508;47.424;19.400;2023-11-19T13:18:15;10.50;;;5.30;;
75732;SDS011;73508;47.424;19.400;2023-11-19T13:20:41;9.93;;;5.15;;
75732;SDS011;73508;47.424;19.400;2023-11-19T13:23:07;10.77;;;5.55;;
75732;SDS011;73508;47.424;19.400;2023-11-19T13:25:32;12.27;;;6.30;;
75732;SDS011;73508;47.424;19.400;2023-11-19T13:27:58;9.93;;;5.40;;
75732;SDS011;73508;47.424;19.400;2023-11-19T13:30:24;11.55;;;6.32;;
75732;SDS011;73508;47.424;19.400;2023-11-19T13:32:50;12.05;;;6.40;;
75732;SDS011;73508;47.424;19.400;2023-11-19T13:35:16;13.13;;;6.00;;
75732;SDS011;73508;47.424;19.400;2023-11-19T13:37:42;11.98;;;6.03;;
75732;SDS011;73508;47.424;19.400;2023-11-19T13:40:08;12.48;;;6.18;;
75732;SDS011;73508;47.424;19.400;2023-11-19T13:42:42;11.77;;;6.10;;
75732;SDS011;73508;47.424;19.400;2023-11-19T13:45:11;10.63;;;5.43;;
75732;SDS011;73508;47.424;19.400;2023-11-19T13:47:38;10.13;;;5.05;;
75732;SDS011;73508;47.424;19.400;2023-11-19T13:50:06;11.75;;;6.05;;
75732;SDS011;73508;47.424;19.400;2023-11-19T13:52:34;15.63;;;7.32;;
75732;SDS011;73508;47.424;19.400;2023-11-19T13:54:59;12.67;;;6.70;;
75732;SDS011;73508;47.424;19.400;2023-11-19T13:57:25;16.40;;;7.55;;
75732;SDS011;73508;47.424;19.400;2023-11-19T13:59:51;14.23;;;7.27;;
75732;SDS011;73508;47.424;19.400;2023-11-19T14:02:16;17.87;;;8.60;;
75732;SDS011;73508;47.424;19.400;2023-11-19T14:04:41;20.10;;;9.97;;
75732;SDS011;73508;47.424;19.400;2023-11-19T14:07:07;18.33;;;8.27;;
75732;SDS011;73508;47.424;19.400;2023-11-19T14:09:32;15.93;;;8.03;;
75732;SDS011;73508;47.424;19.400;2023-11-19T14:11:58;13.37;;;6.63;;
75732;SDS011;73508;47.424;19.400;2023-11-19T14:14:23;10.90;;;6.47;;
75732;SDS011;73508;47.424;19.400;2023-11-19T14:16:49;11.60;;;5.60;;
75732;SDS011;73508;47.424;19.400;2023-11-19T14:19:14;12.93;;;6.87;;
75732;SDS011;73508;47.424;19.400;2023-11-19T14:21:40;18.05;;;7.97;;
75732;SDS011;73508;47.424;19.400;2023-11-19T14:24:05;13.60;;;7.13;;
75732;SDS011;73508;47.424;19.400;2023-11-19T14:26:31;14.53;;;7.03;;
75732;SDS011;73508;47.424;19.400;2023-11-19T14:28:56;13.93;;;6.97;;
75732;SDS011;73508;47.424;19.400;2023-11-19T14:31:21;13.57;;;7.03;;
75732;SDS011;73508;47.424;19.400;2023-11-19T14:33:47;13.07;;;6.77;;
75732;SDS011;73508;47.424;19.400;2023-11-19T14:36:13;12.52;;;7.22;;
75732;SDS011;73508;47.424;19.400;2023-11-19T14:38:38;12.97;;;7.23;;